Aérodrome :







RETROUVEZ-NOUS SUR...

 
LOGIN :

S'inscrire | Disclaimer

   EN    FR    IT 

 









Légende :    VFR   VFR Marginal   IFR   IFR Intensif   IFR Très Intensif
Visi : 
Plafond : 
>= 8 km
>= 3000ft
5 à 8 km
1000 à 3000 ft
1500m à 5 km
500 à 1000 ft
800 à 1500m
200 à 500 ft
< 800m
< 200 ft
Symboles :   Orages  Brouillard  Fortes neiges  Fortes précipitations  Vent > 20 kt






- Altitude de l'aérodrome : 244 ft
- Code IATA : YQB


CYQB - Quebec - Jean Lesage Int.

DERNIER METAR :
  • 140900Z 02002KT 15SM FEW009 BKN110 M14/M15 A3042 RMK ST1AC5 ST TR SLP307

METARs EXPIRÉS :
  • 140800Z 00000KT 15SM FEW009 BKN130 M14/M15 A3041 RMK ST1AC5 SLP306
  • 140700Z 25005KT 15SM FEW009 BKN140 OVC230 M13/M15 A3043 RMK ST2AC4CI2 SLP311
  • 140637Z 25005KT 15SM SCT009 BKN140 OVC230 M13/M15 A3042 RMK ST3AC3CI2 SLP309

TAF TAF CYQB
Valide du 14 à 06h jusqu'au 15 à 06h UTC


140538Z 1406/1506 25010KT P6SM SCT200
FM141100 07005KT P6SM BKN120
FM141500 08007KT P6SM BKN070
FM141700 09007KT P6SM -SN OVC040
FM150200 09005KT 6SM -SN OVC020
FM150500 VRB03KT 4SM -SN BR OVC015 RMK NXT FCST BY 141200Z
ATIS : ENG : +1 418-871-6893 FRA : +1 418-871-6895



MET'MAP, la Météo Aéronautique d'un coup d'oeil ! - Copyright ORBIFLY Décembre 2007 - Disclaimer

ORBIFLY MET'MAP TEAM :

Programmation & Développement : Alexandra Zaïnal
Conception & Développement : Baudouin d'Aumeries
Co-Programmation & Développement : Marc-Olivier Méhu
Soutien technique & logistique : Manuel Goepfert

Contact : metmap@orbifly.com




SOURCES & CREDITS :

   NOAA